2022年5月20日

时间 代码 天气 温度 能见度 乌云 METAR/SPECI
19:55
V
22 °C 10 km+ - Var   000° 0 kt METAR LIVT 201755Z 00000KT CAVOK 22/15 Q1022
18:55
V
22 °C 10 km+ - 280°   280° 1 kt METAR LIVT 201655Z 28001KT CAVOK 22/14 Q1022
17:55
V
22 °C 10 km+ - 310°   310° 1 kt METAR LIVT 201555Z 31001KT CAVOK 22/15 Q1023
16:55
V
23 °C 10 km+ - 300°   300° 1 kt METAR LIVT 201455Z 30001KT CAVOK 23/16 Q1024 RMK SKC QUK 1 QUL 0 VIS MAR 20 KM VIS MIN 9999
15:55
V
23 °C 10 km+ - 290°   290° 2 kt METAR LIVT 201355Z 29002KT CAVOK 23/16 Q1025 RMK SKC QUK 1 QUL 0 VIS MAR 20 KM VIS MIN 9999
14:55
V
24 °C 10 km+ - 260°   260° 4 kt METAR LIVT 201255Z 26004KT CAVOK 24/17 Q1025 RMK SKC QUK 2 QUL 1 SW VIS MAR 20 KM VIS MIN 9999
13:55
V
23 °C 10 km+ - 280°   280° 2 kt METAR LIVT 201155Z 28002KT CAVOK 23/17 Q1025
12:55
V
22 °C 10 km+ - 290°   290° 2 kt METAR LIVT 201055Z 29002KT CAVOK 22/17 Q1026 RMK SKC QUK 1 QUL 0 VIS MAR 20 KM VIS MIN 9999
11:55
V
21 °C 10 km+ - 280°   280° 1 kt METAR LIVT 200955Z 28001KT CAVOK 21/17 Q1026 RMK SKC QUK 1 QUL 0 VIS MAR 20 KM VIS MIN 9999
10:55
V
20 °C 10 km+ - 280°   280° 1 kt METAR LIVT 200855Z 28001KT CAVOK 20/17 Q1026 RMK SKC QUK 1 QUL 0 VIS MAR 20 KM VIS MIN 9999
09:55
V
19 °C 10 km+ - 290°   290° 1 kt METAR LIVT 200755Z 29001KT CAVOK 19/16 Q1026 RMK SKC QUK 1 QUL 0 VIS MAR 20 KM VIS MIN 9999
08:55
V
19 °C 10 km+ - 290°   290° 1 kt METAR LIVT 200655Z 29001KT CAVOK 19/15 Q1026
07:55
V
19 °C 10 km+ - Var   000° 0 kt METAR LIVT 200555Z 00000KT CAVOK 19/15 Q1026 RMK SKC QUK 0 QUL 0 VIS MAR 20 KM VIS MIN 9999
较旧的数据

下载我们的应用程序

在您的手机和平板电脑上轻松访问所有航空天气。
有许多网站上没有的功能,如离线支持和个人机场列表。

Studio Eveline

Benalmádena
España

我们和第三方通过cookies跟踪您在我们网站上的上网行为。如果您继续,我们认为您同意我们的cookie政策。 了解更多